Time;durP1;ratioP1;P1;durP2;ratioP2;P2;SDS_P1;SDS_P2;PMS_P1;PMS_P2;Temp;Humidity;BMP_temperature;BMP_pressure;BME280_temperature;BME280_humidity;BME280_pressure;Samples;Min_cycle;Max_cycle;Signal;HPM_P1;HPM_P2
2022/09/20 00:01:12;;;;;;;;;;;;;;;24.28;34.46;100657.03;104452;1309;61688;-83
2022/09/20 00:03:40;;;;;;;;;;;;;;;24.28;34.63;100655.78;104634;1309;61268;-82
2022/09/20 00:06:07;;;;;;;;;;;;;;;24.28;34.49;100653.27;104536;1308;61292;-83
2022/09/20 00:08:33;;;;;;;;;;;;;;;24.27;34.56;100649.87;104519;1309;61311;-85
2022/09/20 00:11:09;;;;;;;;;;;;;;;24.27;34.62;100648.27;104534;1309;61172;-86
2022/09/20 00:13:35;;;;;;;;;;;;;;;24.27;34.66;100654.05;104507;1309;61319;-81
2022/09/20 00:16:04;;;;;;;;;;;;;;;24.27;34.68;100652.60;104515;1307;61273;-82
2022/09/20 00:18:29;;;;;;;;;;;;;;;24.26;34.67;100650.86;104501;1308;74687;-83
2022/09/20 00:20:54;;;;;;;;;;;;;;;24.26;34.78;100652.31;104419;1309;61340;-84
2022/09/20 00:23:20;;;;;;;;;;;;;;;24.26;34.88;100655.41;104529;1308;61306;-82
2022/09/20 00:25:53;;;;;;;;;;;;;;;24.26;34.86;100652.69;104464;1308;61296;-83
2022/09/20 00:28:20;;;;;;;;;;;;;;;24.25;34.71;100655.23;104436;1308;72589;-83
2022/09/20 00:30:45;;;;;;;;;;;;;;;24.26;34.82;100657.36;104503;1308;61237;-85
2022/09/20 00:33:11;;;;;;;;;;;;;;;24.26;34.72;100656.83;104452;1309;61402;-84
2022/09/20 00:35:37;;;;;;;;;;;;;;;24.25;34.80;100658.70;104504;1308;61292;-84
2022/09/20 00:38:03;;;;;;;;;;;;;;;24.25;34.80;100661.56;104517;1308;59963;-82
2022/09/20 00:40:29;;;;;;;;;;;;;;;24.25;34.83;100655.27;104514;1308;61323;-83
2022/09/20 00:42:54;;;;;;;;;;;;;;;24.25;34.91;100654.91;104465;1311;61310;-82
2022/09/20 00:45:20;;;;;;;;;;;;;;;24.24;34.88;100652.43;104575;1308;61364;-86
2022/09/20 00:48:06;;;;;;;;;;;;;;;24.24;34.96;100649.59;104519;1308;61410;-83
2022/09/20 00:50:34;;;;;;;;;;;;;;;24.24;34.95;100650.84;104478;1308;74586;-82
2022/09/20 00:53:05;;;;;;;;;;;;;;;24.24;34.96;100645.65;104517;1309;61269;-84
2022/09/20 00:55:31;;;;;;;;;;;;;;;24.24;35.00;100647.23;104584;1308;61153;-84
2022/09/20 00:57:56;;;;;;;;;;;;;;;24.24;34.99;100643.30;104530;1308;61150;-84
2022/09/20 01:00:22;;;;;;;;;;;;;;;24.24;35.00;100647.23;104515;1309;61293;-84
2022/09/20 01:02:48;;;;;;;;;;;;;;;24.23;35.02;100646.59;104532;1308;61312;-83
2022/09/20 01:05:14;;;;;;;;;;;;;;;24.23;35.02;100649.29;104537;1308;61413;-83
2022/09/20 01:07:39;;;;;;;;;;;;;;;24.24;35.11;100647.67;104499;1309;61705;-83
2022/09/20 01:10:05;;;;;;;;;;;;;;;24.23;35.02;100647.52;104554;1308;61300;-83
2022/09/20 01:12:33;;;;;;;;;;;;;;;24.23;34.98;100647.33;104505;1308;61443;-81
2022/09/20 01:14:58;;;;;;;;;;;;;;;24.23;35.04;100642.70;104503;1308;61166;-83
2022/09/20 01:17:24;;;;;;;;;;;;;;;24.23;35.09;100642.90;104520;1308;61274;-83
2022/09/20 01:20:04;;;;;;;;;;;;;;;24.23;35.05;100640.73;104455;1309;61316;-83
2022/09/20 01:22:36;;;;;;;;;;;;;;;24.22;35.03;100636.96;104537;1308;74843;-84
2022/09/20 01:25:16;;;;;;;;;;;;;;;24.22;35.20;100633.05;104618;1309;61266;-84
2022/09/20 01:28:07;;;;;;;;;;;;;;;24.22;35.11;100630.55;104646;1309;61437;-85
2022/09/20 01:30:38;;;;;;;;;;;;;;;24.22;35.23;100627.86;104150;1315;72856;-83
2022/09/20 01:33:07;;;;;;;;;;;;;;;24.21;35.14;100631.30;104141;1314;75585;-83
2022/09/20 01:35:33;;;;;;;;;;;;;;;24.22;35.16;100629.30;104144;1314;61364;-83
2022/09/20 01:38:14;;;;;;;;;;;;;;;24.22;35.22;100632.90;104200;1314;61442;-83
2022/09/20 01:40:40;;;;;;;;;;;;;;;24.21;35.18;100628.80;104189;1316;72965;-83
2022/09/20 01:43:17;;;;;;;;;;;;;;;24.21;35.18;100626.28;104322;1316;61402;-84
2022/09/20 01:45:47;;;;;;;;;;;;;;;24.21;35.27;100627.19;104327;1317;61225;-82
2022/09/20 01:48:16;;;;;;;;;;;;;;;24.21;35.30;100623.79;104148;1316;61594;-83
2022/09/20 01:50:41;;;;;;;;;;;;;;;24.22;35.22;100623.73;104144;1314;72445;-85
2022/09/20 01:53:26;;;;;;;;;;;;;;;24.21;35.32;100621.26;104245;1314;61426;-80
2022/09/20 01:56:06;;;;;;;;;;;;;;;24.22;35.31;100621.94;104162;1315;61423;-83
2022/09/20 01:58:41;;;;;;;;;;;;;;;24.21;35.34;100626.14;104238;1314;61292;-83
2022/09/20 02:01:33;;;;;;;;;;;;;;;24.21;35.28;100627.92;104216;1314;72673;-85
2022/09/20 02:04:21;;;;;;;;;;;;;;;24.20;35.30;100622.92;103957;1317;74949;-84
2022/09/20 02:07:05;;;;;;;;;;;;;;;24.20;35.29;100625.81;103357;1320;61272;-83
2022/09/20 02:09:34;;;;;;;;;;;;;;;24.20;35.37;100622.94;104193;1316;61289;-84
2022/09/20 02:12:12;;;;;;;;;;;;;;;24.20;35.40;100625.86;103959;1317;72697;-83
2022/09/20 02:14:48;;;;;;;;;;;;;;;24.20;35.35;100629.48;104170;1317;75358;-83
2022/09/20 02:17:27;;;;;;;;;;;;;;;24.19;35.32;100631.91;104162;1317;62104;-82
2022/09/20 02:19:56;;;;;;;;;;;;;;;24.18;35.34;100629.05;104170;1317;61199;-85
2022/09/20 02:22:44;;;;;;;;;;;;;;;24.18;35.32;100628.17;104150;1317;74201;-83
2022/09/20 02:25:28;;;;;;;;;;;;;;;24.18;35.38;100624.39;103336;1322;75188;-84
2022/09/20 02:27:57;;;;;;;;;;;;;;;24.18;35.41;100628.75;103338;1323;61625;-83
2022/09/20 02:30:27;;;;;;;;;;;;;;;24.17;35.38;100624.64;103335;1323;61829;-83
2022/09/20 02:32:55;;;;;;;;;;;;;;;24.18;35.27;100628.41;103207;1323;73243;-83
2022/09/20 02:35:39;;;;;;;;;;;;;;;24.18;35.36;100630.56;103345;1323;74581;-83
2022/09/20 02:38:09;;;;;;;;;;;;;;;24.17;35.29;100636.04;103329;1322;61191;-84
2022/09/20 02:40:40;;;;;;;;;;;;;;;24.17;35.39;100635.88;103117;1323;61182;-84
2022/09/20 02:43:26;;;;;;;;;;;;;;;24.16;35.49;100640.59;103240;1322;72550;-79
2022/09/20 02:45:51;;;;;;;;;;;;;;;24.16;35.37;100639.85;104200;1314;75191;-84
2022/09/20 02:48:23;;;;;;;;;;;;;;;24.16;35.41;100639.02;104237;1314;61193;-84
2022/09/20 02:50:52;;;;;;;;;;;;;;;24.16;35.48;100642.61;104143;1314;60513;-86
2022/09/20 02:53:31;;;;;;;;;;;;;;;24.15;35.38;100638.86;104217;1314;72838;-83
2022/09/20 02:55:57;;;;;;;;;;;;;;;24.15;35.42;100639.08;104221;1314;75931;-83
2022/09/20 02:58:28;;;;;;;;;;;;;;;24.15;35.45;100645.59;104235;1314;59429;-86
2022/09/20 03:01:07;;;;;;;;;;;;;;;24.15;35.49;100645.04;104224;1314;62003;-85
2022/09/20 03:03:39;;;;;;;;;;;;;;;24.14;35.57;100646.69;104554;1309;72790;-83
2022/09/20 03:06:04;;;;;;;;;;;;;;;24.14;35.57;100645.65;104661;1306;74662;-84
2022/09/20 03:08:33;;;;;;;;;;;;;;;24.14;35.52;100644.23;104631;1308;61268;-84
2022/09/20 03:11:17;;;;;;;;;;;;;;;24.14;35.46;100650.88;104471;1311;61142;-83
2022/09/20 03:14:09;;;;;;;;;;;;;;;24.13;35.50;100649.12;104549;1309;73031;-85
2022/09/20 03:16:40;;;;;;;;;;;;;;;24.13;35.44;100648.04;104212;1314;75935;-80
2022/09/20 03:19:15;;;;;;;;;;;;;;;24.13;35.46;100649.13;104138;1314;61211;-82
2022/09/20 03:21:43;;;;;;;;;;;;;;;24.13;35.60;100651.30;104186;1317;61311;-83
2022/09/20 03:24:17;;;;;;;;;;;;;;;24.13;35.52;100653.11;104219;1314;72839;-84
2022/09/20 03:26:56;;;;;;;;;;;;;;;24.12;35.58;100649.02;104173;1314;75952;-84
2022/09/20 03:29:22;;;;;;;;;;;;;;;24.13;35.57;100652.58;104187;1317;61335;-86
2022/09/20 03:32:05;;;;;;;;;;;;;;;24.12;35.51;100654.80;104222;1314;61468;-85
2022/09/20 03:34:31;;;;;;;;;;;;;;;24.11;35.54;100656.45;104224;1314;72667;-83
2022/09/20 03:37:05;;;;;;;;;;;;;;;24.11;35.54;100662.04;104205;1314;61544;-83
2022/09/20 03:39:40;;;;;;;;;;;;;;;24.11;35.54;100657.91;104214;1314;61263;-84
2022/09/20 03:42:15;;;;;;;;;;;;;;;24.10;35.48;100654.02;104218;1314;61343;-83
2022/09/20 03:44:50;;;;;;;;;;;;;;;24.11;35.62;100652.73;104158;1314;72670;-85
2022/09/20 03:47:24;;;;;;;;;;;;;;;24.10;35.53;100653.48;104228;1314;75574;-86
2022/09/20 03:50:08;;;;;;;;;;;;;;;24.10;35.59;100656.74;104291;1315;61286;-86
2022/09/20 03:52:52;;;;;;;;;;;;;;;24.09;35.60;100659.31;104297;1315;61870;-84
2022/09/20 03:55:37;;;;;;;;;;;;;;;24.08;35.55;100669.11;104479;1308;74202;-84
2022/09/20 03:58:12;;;;;;;;;;;;;;;24.06;35.56;100671.24;104074;1314;74955;-83
2022/09/20 04:00:46;;;;;;;;;;;;;;;24.05;35.63;100676.63;104154;1316;60298;-85
2022/09/20 04:03:15;;;;;;;;;;;;;;;24.02;35.50;100681.87;104175;1316;61272;-84
2022/09/20 04:05:44;;;;;;;;;;;;;;;24.01;35.38;100682.73;103954;1317;73659;-84
2022/09/20 04:08:12;;;;;;;;;;;;;;;23.98;35.21;100685.64;104159;1316;75805;-84
2022/09/20 04:10:48;;;;;;;;;;;;;;;23.95;35.30;100685.05;104185;1316;61091;-84
2022/09/20 04:13:24;;;;;;;;;;;;;;;23.91;35.13;100691.05;104001;1317;61181;-85
2022/09/20 04:16:08;;;;;;;;;;;;;;;23.89;35.17;100688.20;103981;1316;72692;-85
2022/09/20 04:18:36;;;;;;;;;;;;;;;23.87;35.24;100687.77;104007;1317;74726;-85
2022/09/20 04:21:22;;;;;;;;;;;;;;;23.85;35.25;100686.31;104192;1316;61327;-84
2022/09/20 04:23:59;;;;;;;;;;;;;;;23.84;35.24;100690.53;104129;1316;61291;-84
2022/09/20 04:26:26;;;;;;;;;;;;;;;23.84;35.41;100693.98;104131;1316;72800;-84
2022/09/20 04:28:58;;;;;;;;;;;;;;;23.83;35.38;100693.37;104161;1314;61313;-84
2022/09/20 04:31:36;;;;;;;;;;;;;;;23.81;35.52;100695.84;103938;1316;61284;-82
2022/09/20 04:34:02;;;;;;;;;;;;;;;23.79;35.48;100698.53;104004;1316;61213;-83
2022/09/20 04:36:28;;;;;;;;;;;;;;;23.76;35.59;100693.23;104164;1308;72686;-85
2022/09/20 04:39:00;;;;;;;;;;;;;;;23.73;35.56;100690.62;104459;1308;61258;-87
2022/09/20 04:41:29;;;;;;;;;;;;;;;23.69;35.55;100693.42;104217;1309;61172;-82
2022/09/20 04:44:05;;;;;;;;;;;;;;;23.67;35.62;100697.75;104164;1308;61221;-83
2022/09/20 04:46:50;;;;;;;;;;;;;;;23.65;35.66;100700.48;104267;1308;73957;-84
2022/09/20 04:49:16;;;;;;;;;;;;;;;23.61;35.68;100703.68;103872;1308;76011;-82
2022/09/20 04:51:53;;;;;;;;;;;;;;;23.52;35.65;100710.84;103780;1308;61578;-85
2022/09/20 04:54:33;;;;;;;;;;;;;;;23.46;35.46;100712.66;104081;1307;61189;-82
2022/09/20 04:57:04;;;;;;;;;;;;;;;23.44;35.61;100710.10;103881;1306;74011;-83
2022/09/20 04:59:30;;;;;;;;;;;;;;;23.43;35.49;100712.09;103697;1308;73773;-83
2022/09/20 05:02:02;;;;;;;;;;;;;;;23.41;35.44;100712.42;105218;1306;59182;-83
2022/09/20 05:04:47;;;;;;;;;;;;;;;23.39;35.35;100714.06;105273;1306;60386;-84
2022/09/20 05:07:32;;;;;;;;;;;;;;;23.35;35.52;100717.85;103916;1308;73888;-83
2022/09/20 05:10:14;;;;;;;;;;;;;;;23.33;35.46;100723.16;103628;1308;76412;-84
2022/09/20 05:12:39;;;;;;;;;;;;;;;23.35;35.42;100724.08;103635;1309;61286;-83
2022/09/20 05:15:05;;;;;;;;;;;;;;;23.37;35.27;100723.91;103949;1306;61361;-82
2022/09/20 05:17:49;;;;;;;;;;;;;;;23.39;35.26;100722.71;103819;1308;62237;-82
2022/09/20 05:20:24;;;;;;;;;;;;;;;23.40;35.26;100724.17;103778;1309;74827;-82
2022/09/20 05:22:54;;;;;;;;;;;;;;;23.42;35.25;100732.14;103752;1308;61226;-81
2022/09/20 05:25:26;;;;;;;;;;;;;;;23.42;35.29;100729.58;104095;1306;61257;-83
2022/09/20 05:28:00;;;;;;;;;;;;;;;23.43;35.19;100732.25;103881;1309;73894;-83
2022/09/20 05:30:25;;;;;;;;;;;;;;;23.43;35.08;100735.05;103685;1308;74760;-82
2022/09/20 05:32:51;;;;;;;;;;;;;;;23.44;35.05;100738.09;103946;1308;61302;-84
2022/09/20 05:35:35;;;;;;;;;;;;;;;23.44;35.11;100742.94;103919;1308;61324;-82
2022/09/20 05:38:04;;;;;;;;;;;;;;;23.44;34.99;100742.91;103824;1308;72930;-83
2022/09/20 05:40:48;;;;;;;;;;;;;;;23.45;35.00;100740.94;103874;1308;74671;-83
2022/09/20 05:43:52;;;;;;;;;;;;;;;23.44;34.96;100742.05;104005;1307;61486;-83
2022/09/20 05:46:30;;;;;;;;;;;;;;;23.44;35.03;100745.64;103009;1316;61771;-83
2022/09/20 05:48:55;;;;;;;;;;;;;;;23.44;35.15;100751.02;102968;1317;74080;-83
2022/09/20 05:51:39;;;;;;;;;;;;;;;23.44;35.13;100755.86;103032;1317;61344;-82
2022/09/20 05:54:24;;;;;;;;;;;;;;;23.42;35.10;100759.63;103066;1317;61278;-81
2022/09/20 05:56:59;;;;;;;;;;;;;;;23.39;35.10;100766.36;102982;1317;61421;-84
2022/09/20 05:59:51;;;;;;;;;;;;;;;23.32;35.09;100770.89;102971;1317;72857;-83
2022/09/20 06:02:20;;;;;;;;;;;;;;;23.27;35.07;100772.74;102393;1322;75822;-83
2022/09/20 06:04:51;;;;;;;;;;;;;;;23.20;35.03;100777.56;101992;1323;61838;-82
2022/09/20 06:07:23;;;;;;;;;;;;;;;23.14;35.17;100777.54;102222;1321;61169;-82
2022/09/20 06:10:07;;;;;;;;;;;;;;;23.09;35.10;100780.56;102165;1323;72947;-82
2022/09/20 06:12:36;;;;;;;;;;;;;;;23.11;35.13;100787.75;102228;1323;74870;-82
2022/09/20 06:15:02;;;;;;;;;;;;;;;23.14;35.41;100785.74;102199;1323;62141;-83
2022/09/20 06:17:28;;;;;;;;;;;;;;;23.15;35.20;100790.16;102614;1316;61406;-81
2022/09/20 06:20:11;;;;;;;;;;;;;;;23.13;35.25;100792.30;103037;1316;61542;-81
2022/09/20 06:22:38;;;;;;;;;;;;;;;23.09;35.31;100792.23;102959;1317;74644;-82
2022/09/20 06:25:11;;;;;;;;;;;;;;;23.09;35.33;100791.48;102888;1317;61371;-83
2022/09/20 06:27:42;;;;;;;;;;;;;;;23.10;35.29;100795.02;103210;1314;61404;-82
2022/09/20 06:30:14;;;;;;;;;;;;;;;23.12;35.29;100801.15;103259;1314;72787;-83
2022/09/20 06:32:52;;;;;;;;;;;;;;;23.13;35.20;100797.49;103194;1317;75939;-82
2022/09/20 06:35:19;;;;;;;;;;;;;;;23.15;35.05;100800.63;103117;1317;60575;-81
2022/09/20 06:43:45;;;;;;;;;;;;;;;23.21;35.15;100800.99;103596;1309;75732;-80
2022/09/20 06:46:14;;;;;;;;;;;;;;;23.23;35.16;100806.22;103923;1308;61369;-83
2022/09/20 06:48:40;;;;;;;;;;;;;;;23.26;35.21;100810.66;104195;1308;60390;-82
2022/09/20 06:51:08;;;;;;;;;;;;;;;23.28;35.23;100810.85;103887;1308;61323;-83
2022/09/20 06:53:34;;;;;;;;;;;;;;;23.28;35.05;100809.92;103693;1308;75041;-83
2022/09/20 06:56:00;;;;;;;;;;;;;;;23.20;34.88;100811.89;103853;1307;61269;-82
2022/09/20 06:58:25;;;;;;;;;;;;;;;23.08;34.91;100813.48;103662;1308;61310;-82
2022/09/20 07:00:52;;;;;;;;;;;;;;;23.05;34.92;100818.04;103719;1308;61471;-84
2022/09/20 07:03:18;;;;;;;;;;;;;;;23.04;34.93;100817.54;103608;1308;61427;-82
2022/09/20 07:05:44;;;;;;;;;;;;;;;23.05;34.93;100820.21;105287;1309;59702;-82
2022/09/20 07:08:10;;;;;;;;;;;;;;;23.05;34.80;100823.10;104112;1309;61212;-82
2022/09/20 07:10:37;;;;;;;;;;;;;;;23.04;34.86;100824.95;103596;1308;61293;-82
2022/09/20 07:13:02;;;;;;;;;;;;;;;23.03;34.79;100827.21;103910;1308;61384;-82
2022/09/20 07:15:28;;;;;;;;;;;;;;;23.01;34.62;100829.80;103687;1308;61386;-83
2022/09/20 07:17:54;;;;;;;;;;;;;;;23.03;34.67;100833.42;103617;1309;61746;-82
2022/09/20 07:20:19;;;;;;;;;;;;;;;23.05;34.69;100831.48;103726;1308;61415;-83
2022/09/20 07:22:45;;;;;;;;;;;;;;;23.08;34.56;100829.60;103867;1311;61333;-83
2022/09/20 07:25:10;;;;;;;;;;;;;;;23.12;34.56;100826.09;103778;1309;61453;-84
2022/09/20 07:27:36;;;;;;;;;;;;;;;23.16;34.63;100830.67;103837;1309;61340;-84
2022/09/20 07:30:01;;;;;;;;;;;;;;;23.20;34.62;100829.81;103774;1309;61310;-83
2022/09/20 07:32:27;;;;;;;;;;;;;;;23.23;34.60;100829.92;103857;1311;61299;-83
2022/09/20 07:34:52;;;;;;;;;;;;;;;23.25;34.72;100826.70;103748;1310;61367;-83
2022/09/20 07:37:18;;;;;;;;;;;;;;;23.25;34.50;100828.30;103618;1311;61386;-82
2022/09/20 07:39:44;;;;;;;;;;;;;;;23.27;34.61;100829.06;103860;1311;61563;-82
2022/09/20 07:42:10;;;;;;;;;;;;;;;23.28;34.56;100832.02;103857;1310;63651;-83
2022/09/20 07:44:39;;;;;;;;;;;;;;;23.28;34.65;100825.56;103734;1309;61398;-83
2022/09/20 07:47:05;;;;;;;;;;;;;;;23.30;34.87;100831.23;103815;1311;72871;-83
2022/09/20 07:49:30;;;;;;;;;;;;;;;23.29;34.80;100826.73;103968;1309;61417;-84
2022/09/20 07:51:56;;;;;;;;;;;;;;;23.31;34.79;100829.51;103787;1310;61314;-82
2022/09/20 07:54:22;;;;;;;;;;;;;;;23.31;34.83;100833.80;103637;1311;61283;-82
2022/09/20 07:56:48;;;;;;;;;;;;;;;23.31;34.77;100827.67;103598;1311;61281;-83
2022/09/20 07:59:14;;;;;;;;;;;;;;;23.32;34.85;100825.48;103638;1309;73648;-84
2022/09/20 08:01:40;;;;;;;;;;;;;;;23.33;34.65;100825.39;103643;1309;61316;-82
2022/09/20 08:04:05;;;;;;;;;;;;;;;23.33;34.68;100824.98;103570;1310;61334;-83
2022/09/20 08:06:34;;;;;;;;;;;;;;;23.32;34.71;100829.55;103340;1311;61239;-83
2022/09/20 08:09:00;;;;;;;;;;;;;;;23.31;34.74;100828.55;103428;1310;72896;-83
2022/09/20 08:11:27;;;;;;;;;;;;;;;23.31;34.62;100826.64;103555;1311;61348;-84
2022/09/20 08:13:53;;;;;;;;;;;;;;;23.28;34.69;100828.48;103477;1310;61381;-84
2022/09/20 08:16:19;;;;;;;;;;;;;;;23.28;34.55;100828.29;103601;1309;61442;-82
2022/09/20 08:18:45;;;;;;;;;;;;;;;23.27;34.59;100826.36;103565;1308;61263;-83
2022/09/20 08:21:11;;;;;;;;;;;;;;;23.25;34.49;100823.12;105232;1309;59417;-83
2022/09/20 08:23:37;;;;;;;;;;;;;;;23.24;34.64;100825.71;105162;1308;59165;-83
2022/09/20 08:26:03;;;;;;;;;;;;;;;23.28;34.69;100821.14;105136;1308;59489;-83
2022/09/20 08:28:30;;;;;;;;;;;;;;;23.31;34.76;100821.77;104360;1309;59776;-83
2022/09/20 08:31:02;;;;;;;;;;;;;;;23.34;34.73;100821.84;103538;1309;61398;-82
2022/09/20 08:33:27;;;;;;;;;;;;;;;23.36;34.83;100819.55;103688;1309;61353;-81
2022/09/20 08:35:54;;;;;;;;;;;;;;;23.37;34.79;100815.67;103726;1309;61355;-84
2022/09/20 08:38:19;;;;;;;;;;;;;;;23.38;34.64;100814.77;103802;1308;61398;-82
2022/09/20 08:40:45;;;;;;;;;;;;;;;23.38;34.51;100813.52;103590;1309;61303;-83
2022/09/20 08:43:11;;;;;;;;;;;;;;;23.38;34.54;100809.13;103466;1308;61296;-83
2022/09/20 08:45:36;;;;;;;;;;;;;;;23.40;34.59;100806.11;103676;1309;61335;-82
2022/09/20 08:48:04;;;;;;;;;;;;;;;23.41;34.52;100803.14;103639;1309;61378;-83
2022/09/20 08:50:30;;;;;;;;;;;;;;;23.42;34.64;100800.04;103699;1309;73756;-84
2022/09/20 08:52:56;;;;;;;;;;;;;;;23.41;34.50;100808.30;103744;1309;61220;-83
2022/09/20 08:55:22;;;;;;;;;;;;;;;23.42;34.39;100807.90;103856;1309;61163;-84
2022/09/20 08:57:52;;;;;;;;;;;;;;;23.42;34.37;100801.68;103794;1308;61221;-82
2022/09/20 09:00:19;;;;;;;;;;;;;;;23.40;34.23;100798.23;103383;1310;72779;-84
2022/09/20 09:02:44;;;;;;;;;;;;;;;23.36;34.14;100796.40;103461;1308;73323;-83
2022/09/20 09:05:27;;;;;;;;;;;;;;;23.29;34.09;100796.97;103753;1309;61343;-82
2022/09/20 09:07:53;;;;;;;;;;;;;;;23.27;34.04;100792.81;103711;1309;61294;-84
2022/09/20 09:10:20;;;;;;;;;;;;;;;23.22;33.90;100789.41;103781;1308;61279;-82
2022/09/20 09:12:46;;;;;;;;;;;;;;;23.21;33.89;100792.73;103654;1308;61222;-83
2022/09/20 09:15:31;;;;;;;;;;;;;;;23.21;33.88;100794.14;103503;1309;61537;-82
2022/09/20 09:17:56;;;;;;;;;;;;;;;23.25;33.86;100793.14;103683;1309;61295;-82
2022/09/20 09:20:23;;;;;;;;;;;;;;;23.28;33.86;100788.61;103725;1309;61788;-82
2022/09/20 09:23:02;;;;;;;;;;;;;;;23.29;33.66;100788.58;103854;1306;61364;-83
2022/09/20 09:25:31;;;;;;;;;;;;;;;23.29;33.71;100783.86;103775;1309;61168;-82
2022/09/20 09:28:10;;;;;;;;;;;;;;;23.31;33.63;100776.16;103895;1309;61236;-82
2022/09/20 09:30:37;;;;;;;;;;;;;;;23.33;33.61;100779.78;103792;1307;73870;-82
2022/09/20 09:33:25;;;;;;;;;;;;;;;23.31;33.41;100782.08;104047;1307;75710;-82
2022/09/20 09:35:52;;;;;;;;;;;;;;;23.31;33.52;100781.54;104003;1308;61351;-82
2022/09/20 09:38:20;;;;;;;;;;;;;;;23.33;33.43;100779.41;104336;1308;61116;-81
2022/09/20 09:40:55;;;;;;;;;;;;;;;23.34;33.27;100777.89;103815;1309;73961;-82
2022/09/20 09:43:28;;;;;;;;;;;;;;;23.31;33.18;100772.55;103990;1308;74798;-83
2022/09/20 09:46:15;;;;;;;;;;;;;;;23.29;33.13;100771.09;103946;1309;62300;-83
2022/09/20 09:48:41;;;;;;;;;;;;;;;23.30;32.97;100770.52;103941;1308;61264;-84
2022/09/20 09:51:16;;;;;;;;;;;;;;;23.29;32.74;100771.80;103834;1308;61378;-83
2022/09/20 09:53:41;;;;;;;;;;;;;;;23.29;32.79;100765.73;103874;1309;75872;-83
2022/09/20 09:56:10;;;;;;;;;;;;;;;23.29;32.57;100765.42;103627;1309;61365;-82
2022/09/20 09:58:43;;;;;;;;;;;;;;;23.25;32.44;100759.40;103670;1309;59803;-85
2022/09/20 10:01:26;;;;;;;;;;;;;;;23.24;32.39;100763.73;103572;1308;232374;-84
2022/09/20 10:04:07;;;;;;;;;;;;;;;23.17;32.21;100763.48;103568;1309;75676;-84
2022/09/20 10:06:36;;;;;;;;;;;;;;;23.13;32.23;100761.27;103766;1308;61101;-84
2022/09/20 10:09:26;;;;;;;;;;;;;;;23.13;31.96;100761.26;104480;1307;60139;-83
2022/09/20 10:12:06;;;;;;;;;;;;;;;23.09;31.80;100763.65;102843;1314;73463;-83
2022/09/20 10:14:32;;;;;;;;;;;;;;;23.09;31.77;100767.46;102835;1314;75517;-83
2022/09/20 10:17:30;;;;;;;;;;;;;;;23.09;31.84;100761.85;102969;1314;61353;-84
2022/09/20 10:20:06;;;;;;;;;;;;;;;23.06;31.50;100759.98;102657;1321;61562;-83
2022/09/20 10:22:53;;;;;;;;;;;;;;;23.03;31.41;100760.42;102626;1319;73836;-84
2022/09/20 10:25:23;;;;;;;;;;;;;;;23.04;31.62;100760.52;102679;1319;75792;-84
2022/09/20 10:27:55;;;;;;;;;;;;;;;23.05;31.46;100761.88;102531;1320;61307;-85
2022/09/20 10:30:23;;;;;;;;;;;;;;;23.06;31.55;100754.39;102771;1320;61702;-82
2022/09/20 10:32:59;;;;;;;;;;;;;;;23.08;31.51;100748.52;103115;1319;72831;-82
2022/09/20 10:35:28;;;;;;;;;;;;;;;23.08;31.42;100746.87;102797;1320;75470;-84
2022/09/20 10:37:53;;;;;;;;;;;;;;;23.08;31.29;100745.08;102884;1320;61439;-85
2022/09/20 10:40:23;;;;;;;;;;;;;;;23.06;31.28;100744.88;102866;1321;62042;-83
2022/09/20 10:45:41;;;;;;;;;;;;;;;23.00;31.00;100749.73;103131;1320;75403;-84
2022/09/20 10:48:16;;;;;;;;;;;;;;;23.02;31.04;100743.42;102783;1319;61200;-83
2022/09/20 10:50:47;;;;;;;;;;;;;;;23.02;30.99;100742.89;103364;1314;61333;-83
2022/09/20 10:53:21;;;;;;;;;;;;;;;22.94;30.69;100746.05;104493;1314;74678;-82
2022/09/20 10:55:52;;;;;;;;;;;;;;;22.94;30.83;100742.96;103541;1308;74903;-82
2022/09/20 10:58:22;;;;;;;;;;;;;;;23.00;30.95;100737.34;103844;1309;61373;-82
2022/09/20 11:01:16;;;;;;;;;;;;;;;23.04;30.91;100732.83;103571;1307;61584;-84
2022/09/20 11:04:03;;;;;;;;;;;;;;;23.07;30.81;100733.70;104593;1308;73144;-84
2022/09/20 11:06:36;;;;;;;;;;;;;;;23.01;30.83;100733.07;104820;1307;74903;-82
2022/09/20 11:09:03;;;;;;;;;;;;;;;22.90;30.68;100734.16;105082;1308;60595;-81
2022/09/20 11:11:56;;;;;;;;;;;;;;;22.81;30.70;100723.23;104991;1308;59296;-82
2022/09/20 11:14:22;;;;;;;;;;;;;;;22.85;30.72;100727.37;105246;1307;72424;-83
2022/09/20 11:16:49;;;;;;;;;;;;;;;22.91;30.72;100727.60;105317;1306;74933;-82
2022/09/20 11:19:15;;;;;;;;;;;;;;;22.94;30.81;100723.24;105120;1308;62556;-82
2022/09/20 11:21:47;;;;;;;;;;;;;;;22.94;30.65;100725.79;105362;1306;60235;-82
2022/09/20 11:24:19;;;;;;;;;;;;;;;22.89;30.66;100720.38;105383;1306;72115;-82
2022/09/20 11:26:50;;;;;;;;;;;;;;;22.89;30.70;100720.39;105289;1308;74677;-82
2022/09/20 11:29:20;;;;;;;;;;;;;;;22.91;30.64;100717.91;104763;1308;60179;-83
2022/09/20 11:31:47;;;;;;;;;;;;;;;22.95;30.69;100715.46;103887;1308;61329;-82
2022/09/20 11:34:34;;;;;;;;;;;;;;;22.97;30.80;100716.36;104133;1309;72698;-82
2022/09/20 11:37:02;;;;;;;;;;;;;;;23.01;30.71;100712.48;103501;1314;74813;-84
2022/09/20 11:39:38;;;;;;;;;;;;;;;23.04;30.60;100707.74;103411;1315;61391;-82
2022/09/20 11:42:04;;;;;;;;;;;;;;;23.03;30.67;100706.91;103466;1314;61335;-83
2022/09/20 11:44:30;;;;;;;;;;;;;;;23.04;30.64;100708.05;103332;1315;61309;-81
2022/09/20 11:47:04;;;;;;;;;;;;;;;23.02;30.65;100702.29;103205;1316;61320;-82
2022/09/20 11:49:37;;;;;;;;;;;;;;;23.02;30.74;100699.48;103071;1316;61208;-82
2022/09/20 11:52:03;;;;;;;;;;;;;;;23.01;30.53;100697.05;103406;1315;61426;-82
2022/09/20 11:54:48;;;;;;;;;;;;;;;22.97;30.44;100702.02;103336;1314;61343;-82
2022/09/20 11:57:15;;;;;;;;;;;;;;;22.91;30.37;100695.29;103334;1314;76132;-83
2022/09/20 11:59:41;;;;;;;;;;;;;;;22.94;30.61;100695.08;104680;1315;59163;-81
2022/09/20 12:02:17;;;;;;;;;;;;;;;22.99;30.54;100693.47;104692;1314;59409;-82
2022/09/20 12:04:43;;;;;;;;;;;;;;;22.97;30.58;100690.41;104633;1315;72700;-82
2022/09/20 12:07:14;;;;;;;;;;;;;;;22.96;30.69;100692.96;103893;1316;61294;-81
2022/09/20 12:09:41;;;;;;;;;;;;;;;22.94;30.49;100695.23;103811;1314;61360;-81
2022/09/20 12:12:33;;;;;;;;;;;;;;;22.96;30.40;100695.66;103820;1314;61377;-83
2022/09/20 12:15:00;;;;;;;;;;;;;;;23.00;30.26;100694.77;103832;1311;72943;-82
2022/09/20 12:17:44;;;;;;;;;;;;;;;23.03;30.28;100692.90;104343;1309;75778;-84
2022/09/20 12:20:28;;;;;;;;;;;;;;;23.07;30.37;100693.52;104105;1308;61079;-84
2022/09/20 12:23:13;;;;;;;;;;;;;;;23.08;30.32;100694.10;104200;1309;61254;-82
2022/09/20 12:25:39;;;;;;;;;;;;;;;23.04;30.10;100693.35;104022;1309;71815;-82
2022/09/20 12:28:10;;;;;;;;;;;;;;;23.03;30.09;100692.41;104341;1306;61538;-83
2022/09/20 12:30:37;;;;;;;;;;;;;;;23.02;30.25;100694.06;104189;1311;61459;-84
2022/09/20 12:33:03;;;;;;;;;;;;;;;23.03;30.14;100693.98;104178;1308;61181;-83
2022/09/20 12:35:44;;;;;;;;;;;;;;;23.04;30.05;100695.73;103992;1308;71828;-82
2022/09/20 12:38:26;;;;;;;;;;;;;;;23.03;30.01;100690.44;103982;1308;74649;-81
2022/09/20 12:41:02;;;;;;;;;;;;;;;23.04;29.90;100687.99;104078;1309;61392;-83
2022/09/20 12:43:28;;;;;;;;;;;;;;;23.06;30.25;100686.56;104014;1308;61250;-82
2022/09/20 12:45:54;;;;;;;;;;;;;;;23.08;30.21;100689.06;104080;1307;61387;-81
2022/09/20 12:48:19;;;;;;;;;;;;;;;23.11;30.42;100683.45;104281;1309;61305;-82
2022/09/20 12:53:57;;;;;;;;;;;;;;;23.20;30.50;100680.95;105170;1308;61440;-83
2022/09/20 12:56:26;;;;;;;;;;;;;;;23.24;30.68;100680.45;105480;1306;72645;-82
2022/09/20 12:58:52;;;;;;;;;;;;;;;23.28;30.49;100681.06;104423;1309;75669;-83
2022/09/20 13:01:21;;;;;;;;;;;;;;;23.30;30.50;100676.60;104376;1309;61442;-82